createdAt,value
2018-04-13T00:02:27.664Z,94501.48
2018-04-13T00:04:57.154Z,94511.31
2018-04-13T00:07:26.649Z,94508.87
2018-04-13T00:09:56.538Z,94514.20
2018-04-13T00:12:26.060Z,94524.64
2018-04-13T00:14:55.944Z,94522.40
2018-04-13T00:17:25.441Z,94531.02
2018-04-13T00:19:54.940Z,94531.48
2018-04-13T00:22:24.446Z,94534.75
2018-04-13T00:24:53.928Z,94537.06
2018-04-13T00:27:23.434Z,94541.45
2018-04-13T00:29:53.337Z,94545.67
2018-04-13T00:32:22.840Z,94550.30
2018-04-13T00:34:52.360Z,94561.81
2018-04-13T00:37:21.522Z,94560.14
2018-04-13T00:39:51.422Z,94564.48
2018-04-13T00:42:20.920Z,94574.24
2018-04-13T00:44:49.760Z,94567.01
2018-04-13T00:47:19.255Z,94563.38
2018-04-13T00:49:48.754Z,94568.22
2018-04-13T00:52:18.658Z,94574.36
2018-04-13T00:54:48.549Z,94579.08
2018-04-13T00:57:18.054Z,94585.61
2018-04-13T00:59:47.548Z,94580.09
2018-04-13T01:02:17.076Z,94591.14
2018-04-13T01:04:46.576Z,94588.39
2018-04-13T01:07:16.080Z,94600.31
2018-04-13T01:09:45.581Z,94605.62
2018-04-13T01:12:15.075Z,94609.89
2018-04-13T01:14:44.566Z,94615.77
2018-04-13T01:17:14.068Z,94618.73
2018-04-13T01:19:43.236Z,94612.80
2018-04-13T01:22:13.133Z,94614.18
2018-04-13T01:24:43.022Z,94613.53
2018-04-13T01:27:12.723Z,94612.55
2018-04-13T01:29:42.220Z,94611.83
2018-04-13T01:32:11.723Z,94617.55
2018-04-13T01:34:41.218Z,94613.75
2018-04-13T01:37:10.785Z,94623.62
2018-04-13T01:39:40.664Z,94625.12
2018-04-13T01:42:10.156Z,94623.64
2018-04-13T01:44:39.674Z,94625.07
2018-04-13T01:47:09.168Z,94624.05
2018-04-13T01:49:38.668Z,94620.91
2018-04-13T01:52:08.174Z,94629.42
2018-04-13T01:54:37.678Z,94623.80
2018-04-13T01:57:07.174Z,94620.15
2018-04-13T01:59:36.663Z,94623.19
2018-04-13T02:02:05.492Z,94630.20
2018-04-13T02:04:34.990Z,94631.62
2018-04-13T02:07:04.259Z,94635.27
2018-04-13T02:09:33.758Z,94633.25
2018-04-13T02:12:03.256Z,94637.60
2018-04-13T02:14:33.143Z,94633.57
2018-04-13T02:17:02.414Z,94633.13
2018-04-13T02:19:31.908Z,94638.56
2018-04-13T02:22:01.422Z,94636.45
2018-04-13T02:24:30.922Z,94636.19
2018-04-13T02:27:00.636Z,94640.28
2018-04-13T02:29:30.128Z,94639.92
2018-04-13T02:31:59.614Z,94641.77
2018-04-13T02:34:29.205Z,94644.11
2018-04-13T02:36:58.876Z,94650.70
2018-04-13T02:39:28.373Z,94652.94
2018-04-13T02:41:57.880Z,94658.38
2018-04-13T02:44:27.375Z,94659.97
2018-04-13T02:46:56.879Z,94670.38
2018-04-13T02:49:26.153Z,94676.41
2018-04-13T02:51:56.010Z,94682.00
2018-04-13T02:54:25.499Z,94680.04
2018-04-13T02:56:54.993Z,94688.09
2018-04-13T02:59:24.499Z,94698.78
2018-04-13T03:01:54.008Z,94698.89
2018-04-13T03:04:23.529Z,94702.74
2018-04-13T03:06:53.038Z,94705.58
2018-04-13T03:09:22.539Z,94704.84
2018-04-13T03:11:52.042Z,94701.63
2018-04-13T03:14:21.543Z,94712.53
2018-04-13T03:16:51.086Z,94713.48
2018-04-13T03:19:20.569Z,94716.01
2018-04-13T03:21:50.081Z,94717.97
2018-04-13T03:24:19.574Z,94726.03
2018-04-13T03:26:49.080Z,94730.32
2018-04-13T03:29:18.565Z,94737.53
2018-04-13T03:31:48.068Z,94743.38
2018-04-13T03:34:17.563Z,94737.41
2018-04-13T03:36:47.089Z,94746.90
2018-04-13T03:39:16.606Z,94750.07
2018-04-13T03:41:45.876Z,94752.62
2018-04-13T03:44:15.380Z,94765.80
2018-04-13T03:46:44.863Z,94771.72
2018-04-13T03:49:14.778Z,94774.28
2018-04-13T03:51:44.673Z,94778.41
2018-04-13T03:54:14.167Z,94777.14
2018-04-13T03:56:43.663Z,94777.65
2018-04-13T03:59:13.177Z,94783.38
2018-04-13T04:01:42.686Z,94791.95
2018-04-13T04:04:12.171Z,94791.81
2018-04-13T04:06:41.721Z,94803.78
2018-04-13T04:09:10.995Z,94808.95
2018-04-13T04:11:40.686Z,94812.98
2018-04-13T04:14:10.214Z,94820.70
2018-04-13T04:16:39.705Z,94825.31
2018-04-13T04:19:09.212Z,94833.16
2018-04-13T04:21:55.467Z,94834.41
2018-04-13T04:24:42.362Z,94837.54
2018-04-13T04:27:12.297Z,94846.23
2018-04-13T04:29:41.788Z,94845.20
2018-04-13T04:32:11.678Z,94844.47
2018-04-13T04:34:41.181Z,94850.73
2018-04-13T04:37:10.675Z,94856.72
2018-04-13T04:39:40.234Z,94862.88
2018-04-13T04:42:09.732Z,94866.77
2018-04-13T04:44:39.632Z,94867.94
2018-04-13T04:47:09.525Z,94881.42
2018-04-13T04:49:39.022Z,94879.14
2018-04-13T04:52:08.667Z,94882.32
2018-04-13T04:54:38.555Z,94888.20
2018-04-13T04:57:08.063Z,94890.83
2018-04-13T04:59:37.608Z,94899.41
2018-04-13T05:02:07.274Z,94896.48
2018-04-13T05:04:36.782Z,94900.23
2018-04-13T05:07:06.302Z,94898.66
2018-04-13T05:09:35.800Z,94912.40
2018-04-13T05:12:05.608Z,94914.36
2018-04-13T05:14:35.642Z,94922.63
2018-04-13T05:17:05.174Z,94930.22
2018-04-13T05:19:35.068Z,94933.23
2018-04-13T05:22:04.960Z,94934.02
2018-04-13T05:24:34.472Z,94938.80
2018-04-13T05:27:03.985Z,94941.51
2018-04-13T05:29:33.476Z,94946.96
2018-04-13T05:32:02.995Z,94947.89
2018-04-13T05:34:32.483Z,94952.45
2018-04-13T05:37:01.987Z,94955.04
2018-04-13T05:39:31.485Z,94963.56
2018-04-13T05:42:00.968Z,94971.31
2018-04-13T05:44:30.470Z,94976.08
2018-04-13T05:46:59.996Z,94976.55
2018-04-13T05:49:29.505Z,94980.41
2018-04-13T05:51:59.012Z,94991.06
2018-04-13T05:54:28.571Z,94988.88
2018-04-13T05:56:58.454Z,94995.05
2018-04-13T05:59:27.952Z,94998.36
2018-04-13T06:01:57.463Z,95003.28
2018-04-13T06:04:26.965Z,95004.94
2018-04-13T06:06:56.282Z,95010.23
2018-04-13T06:09:25.800Z,95016.13
2018-04-13T06:11:55.694Z,95020.81
2018-04-13T06:14:25.198Z,95014.38
2018-04-13T06:16:54.694Z,95013.50
2018-04-13T06:19:24.192Z,95016.51
2018-04-13T06:21:53.716Z,95020.94
2018-04-13T06:24:23.262Z,95020.69
2018-04-13T06:26:53.154Z,95024.03
2018-04-13T06:29:23.066Z,95023.22
2018-04-13T06:31:52.733Z,95033.05
2018-04-13T06:34:22.246Z,95028.53
2018-04-13T06:36:55.044Z,95037.19
2018-04-13T06:39:21.020Z,95039.06
2018-04-13T06:41:50.518Z,95038.41
2018-04-13T06:44:20.013Z,95041.00
2018-04-13T06:46:49.896Z,95045.85
2018-04-13T06:49:19.395Z,95051.63
2018-04-13T06:51:48.894Z,95047.63
2018-04-13T06:54:18.392Z,95053.61
2018-04-13T06:56:47.943Z,95059.59
2018-04-13T06:59:17.834Z,95061.19
2018-04-13T07:01:47.335Z,95071.07
2018-04-13T07:04:16.826Z,95068.94
2018-04-13T07:06:46.094Z,95074.66
2018-04-13T07:09:15.611Z,95080.55
2018-04-13T07:11:45.111Z,95080.52
2018-04-13T07:14:14.608Z,95071.52
2018-04-13T07:16:44.106Z,95077.63
2018-04-13T07:19:13.621Z,95071.52
2018-04-13T07:21:43.315Z,95080.84
2018-04-13T07:24:13.211Z,95071.16
2018-04-13T07:26:43.149Z,95087.23
2018-04-13T07:29:12.802Z,95091.66
2018-04-13T07:31:42.293Z,95104.38
2018-04-13T07:34:11.895Z,95108.72
2018-04-13T07:36:41.491Z,95109.99
2018-04-13T07:39:10.985Z,95116.91
2018-04-13T07:41:40.502Z,95105.93
2018-04-13T07:44:09.997Z,95113.02
2018-04-13T07:46:39.503Z,95101.13
2018-04-13T07:49:09.003Z,95112.16
2018-04-13T07:51:38.515Z,95119.81
2018-04-13T07:54:08.021Z,95117.73
2018-04-13T07:56:37.518Z,95126.86
2018-04-13T07:59:07.015Z,95131.27
2018-04-13T08:01:36.914Z,95129.72
2018-04-13T08:04:06.405Z,95132.45
2018-04-13T08:06:35.907Z,95135.42
2018-04-13T08:09:04.340Z,95136.55
2018-04-13T08:11:33.991Z,95141.37
2018-04-13T08:14:03.499Z,95138.48
2018-04-13T08:16:33.005Z,95137.91
2018-04-13T08:19:02.499Z,95136.01
2018-04-13T08:21:31.998Z,95134.95
2018-04-13T08:24:01.515Z,95134.55
2018-04-13T08:26:31.003Z,95137.34
2018-04-13T08:29:00.513Z,95141.31
2018-04-13T08:31:30.010Z,95139.87
2018-04-13T08:33:59.533Z,95155.09
2018-04-13T08:36:29.026Z,95142.61
2018-04-13T08:38:58.523Z,95160.50
2018-04-13T08:41:28.066Z,95157.47
2018-04-13T08:43:57.785Z,95170.72
2018-04-13T08:46:27.439Z,95162.54
2018-04-13T08:48:57.057Z,95180.06
2018-04-13T08:51:26.679Z,95181.49
2018-04-13T08:53:56.363Z,95188.59
2018-04-13T08:56:25.877Z,95196.63
2018-04-13T08:58:55.589Z,95208.58
2018-04-13T09:01:25.281Z,95204.41
2018-04-13T09:03:54.797Z,95207.91
2018-04-13T09:06:24.112Z,95213.13
2018-04-13T09:08:53.782Z,95215.55
2018-04-13T09:11:23.688Z,95215.13
2018-04-13T09:13:53.612Z,95218.48
2018-04-13T09:16:23.518Z,95216.02
2018-04-13T09:18:53.438Z,95213.66
2018-04-13T09:21:23.326Z,95227.30
2018-04-13T09:23:52.828Z,95225.32
2018-04-13T09:26:23.687Z,95225.50
2018-04-13T09:28:53.208Z,95237.69
2018-04-13T09:31:22.881Z,95236.59
2018-04-13T09:33:52.417Z,95246.69
2018-04-13T09:36:22.335Z,95242.60
2018-04-13T09:38:52.275Z,95255.09
2018-04-13T09:41:21.765Z,95250.67
2018-04-13T09:43:51.670Z,95248.63
2018-04-13T09:46:21.568Z,95261.36
2018-04-13T09:48:51.077Z,95249.88
2018-04-13T09:51:20.582Z,95262.20
2018-04-13T09:53:50.099Z,95259.70
2018-04-13T09:56:19.999Z,95262.80
2018-04-13T09:58:49.506Z,95272.70
2018-04-13T10:01:21.837Z,95269.39
2018-04-13T10:03:56.554Z,95279.34
2018-04-13T10:06:32.701Z,95287.17
2018-04-13T10:09:02.204Z,95278.32
2018-04-13T10:11:32.304Z,95294.46
2018-04-13T10:14:02.232Z,95300.68
2018-04-13T10:16:32.136Z,95303.01
2018-04-13T10:19:02.034Z,95303.86
2018-04-13T10:21:31.540Z,95305.78
2018-04-13T10:24:01.032Z,95300.65
2018-04-13T10:26:30.576Z,95320.83
2018-04-13T10:29:00.489Z,95316.84
2018-04-13T10:31:30.393Z,95317.33
2018-04-13T10:33:59.906Z,95335.32
2018-04-13T10:36:29.802Z,95330.59
2018-04-13T10:38:59.304Z,95340.41
2018-04-13T10:41:28.818Z,95343.53
2018-04-13T10:43:58.315Z,95351.31
2018-04-13T10:46:27.809Z,95351.25
2018-04-13T10:48:57.316Z,95353.31
2018-04-13T10:51:26.837Z,95351.72
2018-04-13T10:53:56.324Z,95350.62
2018-04-13T10:56:25.821Z,95356.69
2018-04-13T10:58:55.336Z,95357.54
2018-04-13T11:01:24.827Z,95358.81
2018-04-13T11:03:54.343Z,95359.84
2018-04-13T11:06:23.860Z,95377.41
2018-04-13T11:08:53.359Z,95375.13
2018-04-13T11:11:22.636Z,95382.47
2018-04-13T11:13:52.187Z,95378.26
2018-04-13T11:16:21.689Z,95381.14
2018-04-13T11:18:51.207Z,95386.85
2018-04-13T11:21:21.124Z,95388.47
2018-04-13T11:23:51.021Z,95388.88
2018-04-13T11:26:20.515Z,95401.95
2018-04-13T11:28:50.011Z,95392.89
2018-04-13T11:31:19.552Z,95406.22
2018-04-13T11:33:49.453Z,95400.20
2018-04-13T11:36:18.947Z,95402.41
2018-04-13T11:38:48.450Z,95413.71
2018-04-13T11:41:17.942Z,95410.40
2018-04-13T11:43:47.450Z,95416.25
2018-04-13T11:46:16.962Z,95416.73
2018-04-13T11:48:46.454Z,95421.65
2018-04-13T11:51:15.971Z,95419.87
2018-04-13T11:53:45.474Z,95422.86
2018-04-13T11:56:14.966Z,95425.42
2018-04-13T11:58:44.508Z,95417.52
2018-04-13T12:01:13.768Z,95440.80
2018-04-13T12:03:43.279Z,95430.47
2018-04-13T12:06:12.782Z,95444.47
2018-04-13T12:08:42.300Z,95447.14
2018-04-13T12:11:11.792Z,95446.94
2018-04-13T12:13:41.316Z,95455.52
2018-04-13T12:16:10.815Z,95453.40
2018-04-13T12:18:40.321Z,95454.09
2018-04-13T12:21:09.816Z,95447.48
2018-04-13T12:23:39.335Z,95457.91
2018-04-13T12:26:08.605Z,95451.97
2018-04-13T12:28:38.106Z,95461.52
2018-04-13T12:31:07.607Z,95460.07
2018-04-13T12:33:36.882Z,95460.36
2018-04-13T12:36:06.785Z,95458.30
2018-04-13T12:38:36.295Z,95467.92
2018-04-13T12:41:05.786Z,95472.37
2018-04-13T12:43:35.292Z,95475.34
2018-04-13T12:46:04.798Z,95480.59
2018-04-13T12:48:34.286Z,95482.37
2018-04-13T12:51:03.998Z,95486.67
2018-04-13T12:53:33.506Z,95483.19
2018-04-13T12:56:03.075Z,95489.69
2018-04-13T12:58:32.724Z,95491.56
2018-04-13T13:01:02.238Z,95494.20
2018-04-13T13:03:31.738Z,95493.85
2018-04-13T13:06:01.445Z,95499.73
2018-04-13T13:08:30.934Z,95500.25
2018-04-13T13:11:00.460Z,95501.34
2018-04-13T13:13:29.958Z,95498.94
2018-04-13T13:15:59.468Z,95502.88
2018-04-13T13:18:28.746Z,95507.70
2018-04-13T13:20:58.044Z,95509.66
2018-04-13T13:23:27.555Z,95512.16
2018-04-13T13:25:57.064Z,95508.11
2018-04-13T13:28:26.566Z,95509.30
2018-04-13T13:30:56.064Z,95509.47
2018-04-13T13:33:25.560Z,95510.46
2018-04-13T13:35:55.078Z,95517.06
2018-04-13T13:38:24.584Z,95523.83
2018-04-13T13:40:54.081Z,95520.61
2018-04-13T13:43:23.601Z,95530.23
2018-04-13T13:45:53.101Z,95521.39
2018-04-13T13:48:22.602Z,95517.06
2018-04-13T13:50:52.111Z,95522.48
2018-04-13T13:53:21.623Z,95517.55
2018-04-13T13:55:51.131Z,95516.45
2018-04-13T13:58:20.642Z,95524.72
2018-04-13T14:00:50.149Z,95516.90
2018-04-13T14:03:19.653Z,95522.48
2018-04-13T14:05:49.157Z,95526.84
2018-04-13T14:08:18.958Z,95521.80
2018-04-13T14:10:48.478Z,95522.09
2018-04-13T14:13:18.038Z,95518.93
2018-04-13T14:15:47.939Z,95522.19
2018-04-13T14:18:17.446Z,95527.69
2018-04-13T14:20:46.974Z,95531.61
2018-04-13T14:23:16.866Z,95530.12
2018-04-13T14:25:46.396Z,95532.15
2018-04-13T14:28:16.296Z,95536.16
2018-04-13T14:30:46.209Z,95532.09
2018-04-13T14:33:16.124Z,95531.83
2018-04-13T14:35:46.039Z,95533.09
2018-04-13T14:38:15.949Z,95527.26
2018-04-13T14:40:45.470Z,95534.86
2018-04-13T14:43:15.389Z,95535.41
2018-04-13T14:45:45.302Z,95540.24
2018-04-13T14:48:15.198Z,95533.53
2018-04-13T14:50:44.742Z,95534.56
2018-04-13T14:53:14.249Z,95534.00
2018-04-13T14:55:43.761Z,95539.12
2018-04-13T14:58:13.035Z,95538.73
2018-04-13T15:00:42.936Z,95542.52
2018-04-13T15:03:12.857Z,95554.99
2018-04-13T15:05:42.776Z,95553.89
2018-04-13T15:08:12.666Z,95560.60
2018-04-13T15:10:42.175Z,95554.90
2018-04-13T15:13:11.688Z,95558.25
2018-04-13T15:15:41.195Z,95565.27
2018-04-13T15:18:10.718Z,95558.05
2018-04-13T15:20:40.623Z,95557.26
2018-04-13T15:23:10.523Z,95561.72
2018-04-13T15:25:40.011Z,95555.11
2018-04-13T15:28:09.498Z,95563.71
2018-04-13T15:30:39.003Z,95565.02
2018-04-13T15:33:08.509Z,95558.02
2018-04-13T15:35:38.013Z,95565.78
2018-04-13T15:38:07.520Z,95564.52
2018-04-13T15:40:37.013Z,95568.88
2018-04-13T15:43:06.513Z,95568.49
2018-04-13T15:45:36.037Z,95579.05
2018-04-13T15:48:05.536Z,95576.20
2018-04-13T15:50:35.048Z,95574.11
2018-04-13T15:53:04.547Z,95582.01
2018-04-13T15:55:34.055Z,95589.11
2018-04-13T15:58:03.612Z,95593.31
2018-04-13T16:00:33.112Z,95596.67
2018-04-13T16:03:02.605Z,95598.58
2018-04-13T16:05:31.862Z,95599.02
2018-04-13T16:08:01.359Z,95604.31
2018-04-13T16:10:30.860Z,95609.86
2018-04-13T16:13:00.365Z,95623.92
2018-04-13T16:15:29.861Z,95621.80
2018-04-13T16:17:59.770Z,95623.52
2018-04-13T16:20:29.680Z,95634.52
2018-04-13T16:23:01.347Z,95641.66
2018-04-13T16:25:31.261Z,95649.03
2018-04-13T16:28:01.199Z,95636.62
2018-04-13T16:30:30.699Z,95626.63
2018-04-13T16:33:00.194Z,95606.41
2018-04-13T16:35:29.716Z,95617.72
2018-04-13T16:37:58.987Z,95621.23
2018-04-13T16:40:28.880Z,95622.44
2018-04-13T16:42:58.393Z,95634.94
2018-04-13T16:45:27.891Z,95637.23
2018-04-13T16:47:57.452Z,95647.72
2018-04-13T16:50:27.149Z,95651.25
2018-04-13T16:52:56.671Z,95655.32
2018-04-13T16:55:26.166Z,95663.16
2018-04-13T16:57:55.331Z,95660.89
2018-04-13T17:00:25.242Z,95666.21
2018-04-13T17:02:54.767Z,95674.94
2018-04-13T17:05:24.664Z,95685.17
2018-04-13T17:07:54.191Z,95687.27
2018-04-13T17:10:24.306Z,95685.95
2018-04-13T17:12:53.815Z,95687.73
2018-04-13T17:15:23.510Z,95688.51
2018-04-13T17:17:53.431Z,95696.20
2018-04-13T17:20:23.340Z,95697.98
2018-04-13T17:22:52.850Z,95695.41
2018-04-13T17:25:22.532Z,95697.83
2018-04-13T17:27:52.058Z,95698.94
2018-04-13T17:30:21.561Z,95700.63
2018-04-13T17:32:51.086Z,95704.44
2018-04-13T17:35:21.022Z,95708.69
2018-04-13T17:37:50.527Z,95708.02
2018-04-13T17:40:19.791Z,95712.48
2018-04-13T17:42:49.311Z,95715.36
2018-04-13T17:45:19.212Z,95718.30
2018-04-13T17:47:49.127Z,95726.76
2018-04-13T17:50:19.022Z,95723.10
2018-04-13T17:52:48.298Z,95723.80
2018-04-13T17:55:17.817Z,95734.08
2018-04-13T17:57:47.315Z,95733.34
2018-04-13T18:00:16.831Z,95736.86
2018-04-13T18:02:46.356Z,95748.16
2018-04-13T18:05:15.841Z,95755.23
2018-04-13T18:07:45.345Z,95765.99
2018-04-13T18:10:14.839Z,95767.15
2018-04-13T18:12:44.370Z,95765.44
2018-04-13T18:15:13.565Z,95774.56
2018-04-13T18:17:43.079Z,95776.54
2018-04-13T18:20:12.590Z,95780.27
2018-04-13T18:22:42.098Z,95783.89
2018-04-13T18:25:11.594Z,95788.25
2018-04-13T18:27:41.092Z,95791.30
2018-04-13T18:30:10.597Z,95794.71
2018-04-13T18:32:40.098Z,95797.36
2018-04-13T18:35:09.626Z,95798.25
2018-04-13T18:37:39.199Z,95794.47
2018-04-13T18:40:08.735Z,95799.83
2018-04-13T18:42:38.250Z,95793.84
2018-04-13T18:45:08.894Z,95801.42
2018-04-13T18:47:38.234Z,95804.17
2018-04-13T18:50:07.527Z,95812.37
2018-04-13T18:52:37.047Z,95812.06
2018-04-13T18:55:06.734Z,95822.99
2018-04-13T18:57:36.242Z,95825.70
2018-04-13T19:00:05.108Z,95830.67
2018-04-13T19:02:34.830Z,95830.91
2018-04-13T19:05:04.333Z,95836.81
2018-04-13T19:07:34.227Z,95833.72
2018-04-13T19:10:04.127Z,95843.41
2018-04-13T19:12:33.655Z,95848.56
2018-04-13T19:15:03.567Z,95849.88
2018-04-13T19:17:33.459Z,95847.86
2018-04-13T19:20:02.975Z,95854.73
2018-04-13T19:22:32.477Z,95856.33
2018-04-13T19:25:01.988Z,95855.71
2018-04-13T19:27:31.925Z,95856.56
2018-04-13T19:30:01.819Z,95856.95
2018-04-13T19:32:31.331Z,95854.50
2018-04-13T19:35:01.224Z,95854.98
2018-04-13T19:37:30.745Z,95859.88
2018-04-13T19:40:00.268Z,95857.20
2018-04-13T19:42:30.157Z,95864.84
2018-04-13T19:44:59.663Z,95872.13
2018-04-13T19:47:29.166Z,95871.65
2018-04-13T19:49:58.666Z,95881.19
2018-04-13T19:52:28.209Z,95880.55
2018-04-13T19:54:57.759Z,95882.28
2018-04-13T19:57:27.292Z,95880.19
2018-04-13T19:59:56.997Z,95883.36
2018-04-13T20:02:26.460Z,95887.63
2018-04-13T20:04:55.958Z,95891.44
2018-04-13T20:07:25.456Z,95893.69
2018-04-13T20:09:54.962Z,95897.91
2018-04-13T20:12:24.473Z,95894.63
2018-04-13T20:14:53.966Z,95893.81
2018-04-13T20:17:23.469Z,95897.77
2018-04-13T20:19:53.397Z,95896.72
2018-04-13T20:22:22.899Z,95892.05
2018-04-13T20:24:52.413Z,95898.94
2018-04-13T20:27:21.747Z,95909.11
2018-04-13T20:29:51.568Z,95906.73
2018-04-13T20:32:21.398Z,95905.95
2018-04-13T20:34:50.571Z,95903.58
2018-04-13T20:37:20.067Z,95911.38
2018-04-13T20:39:49.569Z,95912.17
2018-04-13T20:42:18.851Z,95908.28
2018-04-13T20:44:48.361Z,95906.39
2018-04-13T20:47:17.854Z,95912.23
2018-04-13T20:49:47.356Z,95911.50
2018-04-13T20:52:17.298Z,95919.67
2018-04-13T20:54:46.807Z,95921.89
2018-04-13T20:57:16.082Z,95914.46
2018-04-13T20:59:45.613Z,95927.98
2018-04-13T21:02:15.135Z,95929.97
2018-04-13T21:04:44.633Z,95929.46
2018-04-13T21:07:14.153Z,95938.83
2018-04-13T21:09:43.683Z,95938.25
2018-04-13T21:12:13.600Z,95943.28
2018-04-13T21:14:43.507Z,95945.64
2018-04-13T21:17:13.018Z,95945.47
2018-04-13T21:19:42.528Z,95950.95
2018-04-13T21:22:12.449Z,95955.02
2018-04-13T21:24:42.025Z,95957.55
2018-04-13T21:27:11.716Z,95957.02
2018-04-13T21:29:41.447Z,95958.16
2018-04-13T21:32:10.939Z,95964.41
2018-04-13T21:34:40.113Z,95971.22
2018-04-13T21:37:09.634Z,95976.50
2018-04-13T21:39:39.138Z,95978.06
2018-04-13T21:42:08.642Z,95976.91
2018-04-13T21:44:38.376Z,95984.08
2018-04-13T21:47:07.884Z,95985.22
2018-04-13T21:49:37.374Z,95988.57
2018-04-13T21:52:06.648Z,95992.28
2018-04-13T21:54:36.152Z,95993.26
2018-04-13T21:57:05.664Z,95998.35
2018-04-13T21:59:35.164Z,95997.19
2018-04-13T22:02:04.676Z,95999.31
2018-04-13T22:04:34.170Z,96002.08
2018-04-13T22:07:03.692Z,96003.41
2018-04-13T22:09:33.385Z,96003.43
2018-04-13T22:12:02.896Z,96005.19
2018-04-13T22:14:45.279Z,96004.75
2018-04-13T22:17:15.219Z,96012.49
2018-04-13T22:19:44.711Z,96006.50
2018-04-13T22:22:14.207Z,96011.57
2018-04-13T22:24:44.088Z,96015.65
2018-04-13T22:27:13.583Z,96017.42
2018-04-13T22:29:43.091Z,96016.07
2018-04-13T22:32:12.629Z,96019.77
2018-04-13T22:34:42.632Z,96017.80
2018-04-13T22:37:12.313Z,96020.33
2018-04-13T22:39:41.823Z,96024.80
2018-04-13T22:42:11.316Z,96023.45
2018-04-13T22:44:40.881Z,96026.17
2018-04-13T22:47:10.769Z,96026.92
2018-04-13T22:49:40.281Z,96030.22
2018-04-13T22:52:09.774Z,96035.48
2018-04-13T22:54:39.507Z,96034.53
2018-04-13T22:57:09.005Z,96043.41
2018-04-13T22:59:38.495Z,96044.19
2018-04-13T23:02:07.985Z,96048.28
2018-04-13T23:04:37.489Z,96056.41
2018-04-13T23:07:06.991Z,96053.24
2018-04-13T23:09:36.514Z,96054.20
2018-04-13T23:12:06.005Z,96060.95
2018-04-13T23:14:35.496Z,96064.95
2018-04-13T23:17:04.982Z,96067.91
2018-04-13T23:19:34.478Z,96072.36
2018-04-13T23:22:04.438Z,96072.30
2018-04-13T23:24:33.933Z,96074.23
2018-04-13T23:27:03.444Z,96081.25
2018-04-13T23:29:33.020Z,96086.66
2018-04-13T23:32:02.497Z,96089.02
2018-04-13T23:34:31.977Z,96094.84
2018-04-13T23:37:01.478Z,96089.22
2018-04-13T23:39:30.969Z,96081.16
2018-04-13T23:42:00.445Z,96078.73
2018-04-13T23:44:29.953Z,96085.34
2018-04-13T23:46:59.457Z,96083.02
2018-04-13T23:49:28.967Z,96089.92
2018-04-13T23:51:58.462Z,96094.50
2018-04-13T23:54:28.338Z,96093.90
2018-04-13T23:56:57.876Z,96093.68
2018-04-13T23:59:27.766Z,96091.42
